Time;durP1;ratioP1;P1;durP2;ratioP2;P2;SDS_P1;SDS_P2;PMS_P1;PMS_P2;Temp;Humidity;BMP_temperature;BMP_pressure;BME280_temperature;BME280_humidity;BME280_pressure;Samples;Min_cycle;Max_cycle;Signal;HPM_P1;HPM_P2
2023/07/24 00:01:21;;;;;;;9.17;6.90;;;16.60;99.90;;;;;;5032537;28;20407;-71
2023/07/24 00:03:49;;;;;;;8.10;7.30;;;16.60;99.90;;;;;;5032618;28;20740;-71
2023/07/24 00:06:15;;;;;;;11.30;7.43;;;16.70;99.90;;;;;;5030077;28;20946;-72
2023/07/24 00:08:43;;;;;;;8.90;8.00;;;16.60;99.90;;;;;;5030618;28;20433;-72
2023/07/24 00:11:10;;;;;;;7.47;6.77;;;16.60;99.90;;;;;;5031982;28;20402;-71
2023/07/24 00:13:37;;;;;;;8.07;7.13;;;16.60;99.90;;;;;;5031916;28;20905;-72
2023/07/24 00:16:07;;;;;;;7.70;7.00;;;16.60;99.90;;;;;;5033071;28;20417;-71
2023/07/24 00:18:34;;;;;;;9.30;8.40;;;16.60;99.90;;;;;;5031544;28;20430;-71
2023/07/24 00:21:02;;;;;;;7.97;7.17;;;16.60;99.90;;;;;;5033356;28;20493;-74
2023/07/24 00:23:28;;;;;;;9.53;6.87;;;16.60;99.90;;;;;;5031709;28;20949;-71
2023/07/24 00:25:55;;;;;;;8.20;7.50;;;16.60;99.90;;;;;;5031427;28;20553;-71
2023/07/24 00:28:21;;;;;;;11.70;8.03;;;16.60;99.90;;;;;;5031579;28;20422;-73
2023/07/24 00:30:49;;;;;;;12.10;6.87;;;16.60;99.90;;;;;;5032123;28;20421;-71
2023/07/24 00:33:16;;;;;;;11.87;8.40;;;16.60;99.90;;;;;;5032068;28;20280;-70
2023/07/24 00:35:42;;;;;;;8.97;8.07;;;16.60;99.90;;;;;;5029244;28;20437;-70
2023/07/24 00:38:08;;;;;;;8.77;7.87;;;16.70;99.90;;;;;;5031884;28;20434;-71
2023/07/24 00:40:33;;;;;;;8.33;7.53;;;16.70;99.90;;;;;;5032000;28;20207;-71
2023/07/24 00:43:01;;;;;;;9.40;8.30;;;16.60;99.90;;;;;;5031999;28;20599;-72
2023/07/24 00:45:28;;;;;;;8.87;7.70;;;16.70;99.90;;;;;;5031865;28;20191;-70
2023/07/24 00:47:55;;;;;;;8.50;7.17;;;16.70;99.90;;;;;;5032756;28;20434;-71
2023/07/24 00:50:23;;;;;;;11.37;8.93;;;16.70;99.90;;;;;;5032257;28;20954;-70
2023/07/24 00:52:49;;;;;;;11.17;8.40;;;16.70;99.90;;;;;;5031947;28;20457;-71
2023/07/24 00:55:16;;;;;;;12.60;8.03;;;16.70;99.90;;;;;;5024002;28;20438;-70
2023/07/24 00:57:44;;;;;;;9.93;8.00;;;16.70;99.90;;;;;;5011927;28;20427;-70
2023/07/24 01:00:11;;;;;;;10.10;8.67;;;16.80;99.90;;;;;;4995808;28;20520;-70
2023/07/24 01:02:38;;;;;;;10.20;7.90;;;16.80;99.90;;;;;;5020659;28;20450;-71
2023/07/24 01:05:08;;;;;;;11.10;8.10;;;16.80;99.90;;;;;;5029504;28;20882;-81
2023/07/24 01:07:35;;;;;;;8.83;7.93;;;16.80;99.90;;;;;;5025291;28;20443;-74
2023/07/24 01:10:01;;;;;;;8.00;7.20;;;16.80;99.90;;;;;;5012285;28;20473;-70
2023/07/24 01:13:01;;;;;;;8.20;7.07;;;16.80;99.90;;;;;;5013515;28;20403;-71
2023/07/24 01:15:35;;;;;;;8.53;7.73;;;16.80;99.90;;;;;;5012505;28;20175;-71
2023/07/24 01:18:14;;;;;;;9.60;8.60;;;16.80;99.90;;;;;;5012787;28;20485;-71
2023/07/24 01:20:48;;;;;;;8.13;7.00;;;16.80;99.90;;;;;;5012956;28;20513;-71
2023/07/24 01:23:20;;;;;;;7.53;6.93;;;16.80;99.90;;;;;;5012656;28;20409;-72
2023/07/24 01:26:00;;;;;;;10.27;8.47;;;16.80;99.90;;;;;;5010890;28;20553;-71
2023/07/24 01:28:28;;;;;;;9.80;8.30;;;16.80;99.90;;;;;;5015869;28;20441;-70
2023/07/24 01:30:54;;;;;;;9.33;8.43;;;16.80;99.90;;;;;;5031689;28;20402;-72
2023/07/24 01:33:21;;;;;;;11.27;7.93;;;16.70;99.90;;;;;;5031067;28;20418;-72
2023/07/24 01:35:53;;;;;;;9.13;8.23;;;16.70;99.90;;;;;;5029455;28;20406;-73
2023/07/24 01:38:19;;;;;;;8.80;7.83;;;16.70;99.90;;;;;;5016061;28;20453;-70
2023/07/24 01:40:47;;;;;;;8.47;7.57;;;16.80;99.90;;;;;;5032625;28;20409;-73
2023/07/24 01:43:13;;;;;;;11.00;8.53;;;16.80;99.90;;;;;;5030769;28;20426;-71
2023/07/24 01:45:40;;;;;;;16.73;8.20;;;16.80;99.90;;;;;;5032235;28;20463;-70
2023/07/24 01:48:06;;;;;;;10.70;8.43;;;16.80;99.90;;;;;;5027729;28;20443;-71
2023/07/24 01:50:33;;;;;;;9.80;8.70;;;16.70;99.90;;;;;;5013211;28;20435;-70
2023/07/24 01:52:59;;;;;;;9.27;8.20;;;16.80;99.90;;;;;;5032169;28;20426;-70
2023/07/24 01:55:26;;;;;;;14.93;8.47;;;16.80;99.90;;;;;;5030331;28;20403;-70
2023/07/24 01:57:52;;;;;;;12.60;8.97;;;16.80;99.90;;;;;;5031251;28;20450;-71
2023/07/24 02:00:20;;;;;;;11.10;9.53;;;16.80;99.90;;;;;;5034016;28;20814;-71
2023/07/24 02:02:45;;;;;;;14.50;8.47;;;16.80;99.90;;;;;;5034824;28;20410;-70
2023/07/24 02:05:12;;;;;;;15.90;8.70;;;16.80;99.90;;;;;;5033793;28;20417;-70
2023/07/24 02:07:40;;;;;;;11.00;8.70;;;16.80;99.90;;;;;;5035023;28;20683;-72
2023/07/24 02:10:06;;;;;;;11.10;8.57;;;16.80;99.90;;;;;;5033571;28;20468;-73
2023/07/24 02:12:33;;;;;;;12.10;9.33;;;16.90;99.90;;;;;;5034035;28;20517;-71
2023/07/24 02:15:01;;;;;;;9.77;8.00;;;16.90;99.90;;;;;;5032099;28;20487;-70
2023/07/24 02:17:27;;;;;;;16.60;8.00;;;16.90;99.90;;;;;;5034819;28;20483;-75
2023/07/24 02:19:54;;;;;;;10.27;9.27;;;16.90;99.90;;;;;;5035400;28;20450;-71
2023/07/24 02:22:20;;;;;;;15.43;9.30;;;17.00;99.90;;;;;;5017702;28;20175;-70
2023/07/24 02:24:47;;;;;;;10.50;9.43;;;17.00;99.90;;;;;;5035013;28;20426;-71
2023/07/24 02:27:34;;;;;;;14.20;9.77;;;17.00;99.90;;;;;;5033653;28;20227;-70
2023/07/24 02:30:03;;;;;;;11.00;9.30;;;17.00;99.90;;;;;;5034291;28;20501;-73
2023/07/24 02:32:32;;;;;;;14.17;9.97;;;17.00;99.90;;;;;;5033744;28;20434;-70
2023/07/24 02:34:58;;;;;;;21.60;9.60;;;17.00;99.90;;;;;;5034714;28;20771;-71
2023/07/24 02:37:24;;;;;;;17.20;10.10;;;17.00;99.90;;;;;;5033612;28;20438;-69
2023/07/24 02:39:49;;;;;;;9.87;8.77;;;17.10;99.90;;;;;;5033303;28;20466;-71
2023/07/24 02:42:15;;;;;;;10.90;8.60;;;17.10;99.90;;;;;;5032852;28;20171;-73
2023/07/24 02:44:41;;;;;;;14.60;8.70;;;17.10;99.90;;;;;;5020023;28;20182;-70
2023/07/24 02:47:07;;;;;;;11.93;9.40;;;17.10;99.90;;;;;;5014385;28;20196;-69
2023/07/24 02:49:34;;;;;;;11.30;9.30;;;17.20;99.90;;;;;;5014089;28;20454;-69
2023/07/24 02:52:06;;;;;;;14.70;9.23;;;17.20;99.90;;;;;;5017271;28;20458;-70
2023/07/24 02:54:33;;;;;;;14.30;10.17;;;17.20;99.90;;;;;;5032045;28;20415;-71
2023/07/24 02:57:04;;;;;;;15.33;9.83;;;17.20;99.90;;;;;;5032868;28;20442;-72
2023/07/24 02:59:31;;;;;;;16.63;9.30;;;17.20;99.90;;;;;;5034885;28;20954;-70
2023/07/24 03:01:59;;;;;;;16.43;8.67;;;17.20;99.90;;;;;;5031721;28;20786;-71
2023/07/24 03:04:25;;;;;;;15.97;10.60;;;17.30;99.90;;;;;;5032921;28;20438;-71
2023/07/24 03:06:52;;;;;;;13.20;9.27;;;17.30;99.90;;;;;;5031240;28;20454;-71
2023/07/24 03:09:19;;;;;;;12.73;10.27;;;17.30;99.90;;;;;;5033473;28;20414;-71
2023/07/24 03:11:45;;;;;;;14.20;9.80;;;17.30;99.90;;;;;;5032212;28;20434;-70
2023/07/24 03:14:11;;;;;;;10.83;9.73;;;17.30;99.90;;;;;;5012463;28;20435;-69
2023/07/24 03:16:37;;;;;;;11.97;8.67;;;17.30;99.90;;;;;;5013508;28;20533;-70
2023/07/24 03:19:02;;;;;;;15.60;8.80;;;17.30;99.90;;;;;;5013458;28;20727;-71
2023/07/24 03:21:30;;;;;;;13.30;8.33;;;17.40;99.90;;;;;;5014662;28;20179;-70
2023/07/24 03:23:57;;;;;;;12.10;10.10;;;17.30;99.90;;;;;;5013426;28;20249;-71
2023/07/24 03:26:23;;;;;;;12.33;9.07;;;17.40;99.90;;;;;;5013547;28;20430;-71
2023/07/24 03:28:49;;;;;;;9.47;8.33;;;17.40;99.90;;;;;;5017083;28;20435;-70
2023/07/24 03:31:17;;;;;;;10.57;9.57;;;17.40;99.90;;;;;;5021765;28;20414;-70
2023/07/24 03:33:44;;;;;;;10.93;9.83;;;17.40;99.90;;;;;;5034212;28;20414;-71
2023/07/24 03:36:10;;;;;;;9.30;8.40;;;17.40;99.90;;;;;;5032005;28;20418;-72
2023/07/24 03:38:39;;;;;;;13.40;9.00;;;17.50;99.90;;;;;;5031970;28;20420;-72
2023/07/24 03:41:05;;;;;;;15.37;9.60;;;17.40;99.90;;;;;;5032653;28;20926;-71
2023/07/24 03:43:32;;;;;;;10.23;9.23;;;17.50;99.90;;;;;;5032767;28;20410;-74
2023/07/24 03:45:58;;;;;;;10.87;8.60;;;17.40;99.90;;;;;;5031636;28;20410;-71
2023/07/24 03:48:24;;;;;;;11.00;8.17;;;17.40;99.90;;;;;;5033409;28;20441;-74
2023/07/24 03:50:57;;;;;;;11.70;10.13;;;17.40;99.90;;;;;;5033918;28;20207;-70
2023/07/24 03:53:23;;;;;;;9.50;8.20;;;17.50;99.90;;;;;;5016213;28;20923;-72
2023/07/24 03:55:49;;;;;;;10.60;9.50;;;17.50;99.90;;;;;;5030173;28;20450;-72
2023/07/24 03:58:15;;;;;;;10.40;9.50;;;17.50;99.90;;;;;;5032406;28;20438;-73
2023/07/24 04:00:40;;;;;;;13.60;9.23;;;17.50;99.90;;;;;;5015956;28;20702;-71
2023/07/24 04:03:06;;;;;;;11.87;8.30;;;17.50;99.90;;;;;;5033517;28;20168;-74
2023/07/24 04:05:35;;;;;;;13.80;8.77;;;17.50;99.90;;;;;;5032483;28;20175;-73
2023/07/24 04:08:02;;;;;;;10.63;8.73;;;17.50;99.90;;;;;;5003694;28;20463;-71
2023/07/24 04:10:28;;;;;;;10.53;9.10;;;17.50;99.90;;;;;;5045248;28;20427;-71
2023/07/24 04:12:54;;;;;;;11.50;8.43;;;17.50;99.90;;;;;;5013785;28;20498;-72
2023/07/24 04:15:20;;;;;;;13.33;9.10;;;17.50;99.90;;;;;;5012902;28;21042;-73
2023/07/24 04:17:46;;;;;;;14.73;9.23;;;17.50;99.90;;;;;;5012387;28;20204;-71
2023/07/24 04:20:12;;;;;;;12.37;8.87;;;17.50;99.90;;;;;;5018309;28;20210;-74
2023/07/24 04:22:38;;;;;;;11.70;8.50;;;17.50;99.90;;;;;;5013082;28;20537;-71
2023/07/24 04:25:04;;;;;;;10.27;8.50;;;17.50;99.90;;;;;;5030849;28;20436;-81
2023/07/24 04:27:29;;;;;;;9.93;8.93;;;17.50;99.90;;;;;;5033347;28;20528;-71
2023/07/24 04:29:55;;;;;;;11.57;9.17;;;17.50;99.90;;;;;;5032109;28;20414;-71
2023/07/24 04:32:21;;;;;;;11.00;7.77;;;17.50;99.90;;;;;;5032117;28;20547;-73
2023/07/24 04:34:48;;;;;;;10.13;8.80;;;17.50;99.90;;;;;;5032064;28;20222;-71
2023/07/24 04:37:13;;;;;;;9.60;7.53;;;17.50;99.90;;;;;;5032039;28;20278;-71
2023/07/24 04:39:40;;;;;;;10.60;8.47;;;17.50;99.90;;;;;;5032123;28;20552;-71
2023/07/24 04:42:06;;;;;;;11.03;8.27;;;17.50;99.90;;;;;;5032210;28;20183;-70
2023/07/24 04:44:33;;;;;;;11.83;8.77;;;17.50;99.90;;;;;;5031841;28;20899;-70
2023/07/24 04:46:58;;;;;;;11.67;9.00;;;17.50;99.90;;;;;;5031969;28;20460;-70
2023/07/24 04:49:25;;;;;;;15.30;10.13;;;17.50;99.90;;;;;;5031004;28;20673;-71
2023/07/24 04:51:51;;;;;;;12.50;9.70;;;17.50;99.90;;;;;;5032189;28;20187;-71
2023/07/24 04:54:17;;;;;;;9.10;8.20;;;17.50;99.90;;;;;;5020952;28;20446;-68
2023/07/24 04:56:43;;;;;;;11.50;7.80;;;17.60;99.90;;;;;;5012216;28;20716;-68
2023/07/24 04:59:09;;;;;;;12.33;8.50;;;17.60;99.90;;;;;;5011449;28;20534;-68
2023/07/24 05:01:34;;;;;;;10.40;9.20;;;17.60;99.90;;;;;;5022408;28;20182;-70
2023/07/24 05:04:00;;;;;;;12.33;9.80;;;17.70;99.90;;;;;;5032919;28;20620;-68
2023/07/24 05:06:26;;;;;;;13.77;9.47;;;17.60;99.90;;;;;;5032023;28;20214;-67
2023/07/24 05:08:53;;;;;;;13.57;9.47;;;17.70;99.90;;;;;;5032909;28;20222;-72
2023/07/24 05:11:19;;;;;;;9.93;8.97;;;17.60;99.90;;;;;;5028555;28;20477;-72
2023/07/24 05:13:44;;;;;;;13.53;9.00;;;17.70;99.90;;;;;;5018847;28;20464;-71
2023/07/24 05:16:10;;;;;;;10.97;8.47;;;17.70;99.90;;;;;;5024326;28;20187;-71
2023/07/24 05:18:36;;;;;;;12.93;9.13;;;17.70;99.90;;;;;;5030542;28;20662;-71
2023/07/24 05:21:02;;;;;;;11.67;8.70;;;17.70;99.90;;;;;;5031353;28;20207;-71
2023/07/24 05:23:27;;;;;;;11.03;9.90;;;17.70;99.90;;;;;;5016276;28;20176;-72
2023/07/24 05:26:00;;;;;;;13.67;9.83;;;17.70;99.90;;;;;;5010959;28;20178;-71
2023/07/24 05:28:27;;;;;;;12.30;9.00;;;17.80;99.90;;;;;;5016921;28;20195;-74
2023/07/24 05:30:54;;;;;;;13.20;8.60;;;17.80;99.90;;;;;;5013025;28;20407;-73
2023/07/24 05:33:21;;;;;;;10.30;8.17;;;17.80;99.90;;;;;;5012809;28;20407;-72
2023/07/24 05:35:49;;;;;;;14.17;9.63;;;17.80;99.90;;;;;;5018292;28;20410;-72
2023/07/24 05:38:15;;;;;;;10.30;8.60;;;17.80;99.90;;;;;;5025347;28;20842;-73
2023/07/24 05:40:41;;;;;;;10.97;9.20;;;17.80;99.90;;;;;;5020522;28;20537;-71
2023/07/24 05:43:06;;;;;;;11.87;8.30;;;17.80;99.90;;;;;;5017100;28;20172;-72
2023/07/24 05:45:32;;;;;;;13.70;9.23;;;17.80;99.90;;;;;;5034060;28;20255;-73
2023/07/24 05:47:58;;;;;;;12.10;8.20;;;17.80;99.90;;;;;;5015979;28;20200;-71
2023/07/24 05:50:23;;;;;;;13.30;7.83;;;17.80;99.90;;;;;;5016402;28;20196;-72
2023/07/24 05:52:50;;;;;;;11.90;9.10;;;17.80;99.90;;;;;;5030135;28;20191;-72
2023/07/24 05:55:16;;;;;;;10.90;8.60;;;17.80;99.90;;;;;;5028525;28;20184;-74
2023/07/24 05:57:42;;;;;;;14.50;8.10;;;17.90;99.90;;;;;;5035527;28;20436;-70
2023/07/24 06:00:08;;;;;;;9.60;7.93;;;17.90;99.90;;;;;;5036045;28;20207;-70
2023/07/24 06:02:33;;;;;;;11.27;8.40;;;18.00;99.90;;;;;;5034929;28;20206;-72
2023/07/24 06:04:59;;;;;;;11.93;8.00;;;18.00;99.90;;;;;;5034096;28;20410;-72
2023/07/24 06:07:25;;;;;;;10.73;8.10;;;18.10;99.90;;;;;;5021668;28;20205;-75
2023/07/24 06:09:50;;;;;;;12.80;8.23;;;18.00;99.90;;;;;;5015902;28;20176;-72
2023/07/24 06:12:16;;;;;;;11.90;8.53;;;18.10;99.90;;;;;;5020061;28;20651;-73
2023/07/24 06:14:42;;;;;;;10.33;8.20;;;18.20;99.90;;;;;;5034706;28;20537;-76
2023/07/24 06:17:07;;;;;;;11.93;9.13;;;18.30;99.90;;;;;;5034461;28;20242;-72
2023/07/24 06:19:34;;;;;;;12.17;8.50;;;18.40;99.90;;;;;;5035448;28;20203;-72
2023/07/24 06:21:59;;;;;;;11.03;8.80;;;18.40;99.90;;;;;;5033687;28;20184;-72
2023/07/24 06:24:25;;;;;;;10.37;8.90;;;18.50;99.90;;;;;;5035659;28;20770;-70
2023/07/24 06:26:51;;;;;;;16.23;8.80;;;18.50;99.90;;;;;;5034329;28;20200;-73
2023/07/24 06:29:16;;;;;;;8.73;7.70;;;18.60;99.90;;;;;;5033192;28;20243;-71
2023/07/24 06:31:42;;;;;;;10.27;9.17;;;18.60;99.90;;;;;;5033783;28;20184;-72
2023/07/24 06:34:08;;;;;;;8.17;7.37;;;18.70;94.90;;;;;;5035239;28;20170;-71
2023/07/24 06:36:33;;;;;;;10.40;7.70;;;18.70;75.60;;;;;;5021671;28;20251;-72
2023/07/24 06:38:59;;;;;;;10.27;8.43;;;18.70;54.10;;;;;;5025318;28;20207;-71
2023/07/24 06:41:25;;;;;;;12.13;10.40;;;18.70;53.40;;;;;;5026283;28;20191;-71
2023/07/24 06:43:51;;;;;;;10.73;8.10;;;18.70;41.30;;;;;;5013474;28;20180;-71
2023/07/24 06:46:17;;;;;;;8.23;7.37;;;18.80;41.00;;;;;;4996477;28;20184;-72
2023/07/24 06:48:43;;;;;;;9.10;7.10;;;18.80;13.10;;;;;;5015194;28;20465;-72
2023/07/24 06:51:08;;;;;;;12.47;8.00;;;18.80;11.10;;;;;;5014387;28;20442;-74
2023/07/24 06:53:34;;;;;;;15.00;8.33;;;18.80;5.30;;;;;;5014895;28;20214;-73
2023/07/24 06:56:01;;;;;;;10.20;8.07;;;18.90;1.00;;;;;;5014281;28;20577;-72
2023/07/24 06:58:26;;;;;;;9.80;7.97;;;19.00;1.00;;;;;;5013772;28;20196;-72
2023/07/24 07:00:52;;;;;;;9.80;8.90;;;19.00;1.00;;;;;;5015195;28;20516;-74
2023/07/24 07:03:18;;;;;;;9.97;8.07;;;19.00;1.00;;;;;;5032856;28;20179;-72
2023/07/24 07:05:43;;;;;;;10.10;7.80;;;18.90;1.00;;;;;;5034032;28;20485;-72
2023/07/24 07:08:12;;;;;;;14.70;8.43;;;18.80;1.00;;;;;;5033348;28;20191;-72
2023/07/24 07:10:38;;;;;;;12.13;8.73;;;18.80;1.00;;;;;;5034542;28;20184;-70
2023/07/24 07:13:03;;;;;;;8.60;7.43;;;18.80;1.00;;;;;;5033311;28;20443;-72
2023/07/24 07:15:29;;;;;;;9.30;7.80;;;18.70;1.00;;;;;;5033754;28;20257;-73
2023/07/24 07:17:55;;;;;;;11.60;10.07;;;18.70;1.00;;;;;;5034460;28;20187;-74
2023/07/24 07:20:20;;;;;;;8.83;7.80;;;18.50;1.00;;;;;;5034460;28;20187;-72
2023/07/24 07:22:46;;;;;;;14.37;8.67;;;18.60;1.00;;;;;;5034525;28;20267;-70
2023/07/24 07:25:12;;;;;;;11.40;8.63;;;18.50;1.00;;;;;;5033680;28;20179;-70
2023/07/24 07:27:37;;;;;;;15.83;9.93;;;18.60;1.00;;;;;;5032639;28;20199;-74
2023/07/24 07:30:04;;;;;;;10.70;9.50;;;18.60;1.00;;;;;;5020328;28;20640;-73
2023/07/24 07:32:30;;;;;;;11.73;10.30;;;18.60;1.00;;;;;;5014286;28;20588;-72
2023/07/24 07:34:55;;;;;;;10.87;8.73;;;18.60;1.00;;;;;;5012870;28;20498;-72
2023/07/24 07:37:21;;;;;;;12.63;10.03;;;18.70;1.00;;;;;;5013797;28;20200;-73
2023/07/24 07:39:47;;;;;;;12.80;9.43;;;18.70;1.00;;;;;;5014364;28;20239;-72
2023/07/24 07:42:12;;;;;;;10.47;9.37;;;18.70;1.00;;;;;;5027476;28;20194;-74
2023/07/24 07:44:38;;;;;;;11.87;10.67;;;18.70;1.00;;;;;;5033070;28;20237;-72
2023/07/24 07:47:04;;;;;;;10.83;9.70;;;18.70;1.00;;;;;;5031053;28;20585;-74
2023/07/24 07:49:29;;;;;;;8.87;7.97;;;18.70;1.00;;;;;;5031614;28;20191;-70
2023/07/24 07:51:55;;;;;;;14.47;10.03;;;18.80;1.00;;;;;;5033652;28;20223;-72
2023/07/24 07:54:21;;;;;;;11.93;10.33;;;18.70;1.00;;;;;;5029785;28;20182;-72
2023/07/24 07:56:47;;;;;;;14.77;9.57;;;18.70;1.00;;;;;;5014185;28;20199;-73
2023/07/24 07:59:12;;;;;;;14.03;11.00;;;18.60;1.00;;;;;;5032035;28;20290;-71
2023/07/24 08:01:39;;;;;;;14.10;12.40;;;18.60;1.00;;;;;;5021613;28;20192;-72
2023/07/24 08:04:05;;;;;;;11.87;10.43;;;18.80;1.00;;;;;;5013407;28;20156;-72
2023/07/24 08:06:31;;;;;;;11.17;9.73;;;18.80;1.00;;;;;;5013544;28;20449;-73
2023/07/24 08:08:57;;;;;;;11.90;9.87;;;18.70;1.00;;;;;;5022306;28;20948;-72
2023/07/24 08:11:23;;;;;;;11.13;9.63;;;18.70;1.00;;;;;;5031718;28;20200;-72
2023/07/24 08:13:49;;;;;;;11.20;10.10;;;18.70;1.00;;;;;;5033762;28;20740;-73
2023/07/24 08:16:19;;;;;;;14.93;9.87;;;18.70;1.00;;;;;;5023910;28;20222;-73
2023/07/24 08:18:46;;;;;;;10.93;9.77;;;18.60;1.00;;;;;;5013966;28;20629;-72
2023/07/24 08:21:13;;;;;;;11.80;10.60;;;18.60;1.00;;;;;;5018631;28;20410;-73
2023/07/24 08:23:39;;;;;;;11.67;9.40;;;18.70;1.00;;;;;;5031526;28;20838;-72
2023/07/24 08:26:05;;;;;;;13.90;9.80;;;18.60;1.00;;;;;;5031994;28;20437;-72
2023/07/24 08:28:31;;;;;;;11.17;9.33;;;18.60;1.00;;;;;;5033758;28;20442;-73
2023/07/24 08:30:58;;;;;;;11.73;10.53;;;18.60;1.00;;;;;;5029257;28;20470;-74
2023/07/24 08:33:24;;;;;;;13.33;10.67;;;18.60;1.00;;;;;;5033523;28;20241;-72
2023/07/24 08:36:04;;;;;;;12.97;10.83;;;18.60;1.00;;;;;;5030659;28;20472;-72
2023/07/24 08:38:30;;;;;;;12.57;10.10;;;18.60;1.00;;;;;;5011848;28;20461;-74
2023/07/24 08:41:05;;;;;;;11.50;9.57;;;18.60;1.00;;;;;;5033186;28;20543;-72
2023/07/24 08:43:32;;;;;;;15.30;11.40;;;18.50;1.00;;;;;;5032272;28;20460;-71
2023/07/24 08:45:59;;;;;;;12.87;10.13;;;18.40;1.00;;;;;;5030319;28;20790;-72
2023/07/24 08:48:29;;;;;;;14.97;11.50;;;18.40;1.00;;;;;;5031912;28;20950;-72
2023/07/24 08:50:57;;;;;;;16.83;10.47;;;18.40;1.00;;;;;;5031851;28;20434;-77
2023/07/24 08:53:23;;;;;;;15.97;11.70;;;18.50;1.00;;;;;;5014703;28;20481;-72
2023/07/24 08:55:52;;;;;;;15.60;11.10;;;18.40;1.00;;;;;;5029080;28;20993;-72
2023/07/24 08:58:18;;;;;;;12.93;10.30;;;18.40;1.00;;;;;;5032828;28;20934;-73
2023/07/24 09:00:43;;;;;;;12.53;11.13;;;18.50;1.00;;;;;;5029402;28;20556;-72
2023/07/24 09:03:10;;;;;;;12.47;9.93;;;18.50;1.00;;;;;;5020835;28;20230;-72
2023/07/24 09:05:36;;;;;;;13.77;10.20;;;18.60;1.00;;;;;;5023861;28;20172;-73
2023/07/24 09:08:01;;;;;;;13.60;9.00;;;18.60;1.00;;;;;;5030206;28;20491;-72
2023/07/24 09:10:28;;;;;;;12.90;9.40;;;18.70;1.00;;;;;;5019604;28;20187;-72
2023/07/24 09:12:54;;;;;;;13.00;9.37;;;18.70;1.00;;;;;;5016745;28;20172;-72
2023/07/24 09:15:20;;;;;;;10.90;9.80;;;18.70;1.00;;;;;;5020415;28;20439;-72
2023/07/24 09:17:50;;;;;;;11.73;8.77;;;18.70;1.00;;;;;;5037022;28;20764;-72
2023/07/24 09:20:16;;;;;;;13.70;9.83;;;18.70;1.00;;;;;;5043304;28;20194;-73
2023/07/24 09:22:52;;;;;;;12.43;9.67;;;18.70;1.00;;;;;;5019354;28;20986;-72
2023/07/24 09:25:18;;;;;;;11.00;9.90;;;18.80;1.00;;;;;;5015034;28;20774;-72
2023/07/24 09:27:44;;;;;;;16.40;10.10;;;18.80;1.00;;;;;;5031773;28;20432;-73
2023/07/24 09:30:14;;;;;;;14.43;10.43;;;18.80;1.00;;;;;;5033219;28;20202;-75
2023/07/24 09:32:40;;;;;;;16.40;10.03;;;18.80;1.00;;;;;;5021950;28;20942;-73
2023/07/24 09:35:19;;;;;;;21.07;10.47;;;19.00;1.00;;;;;;5035350;28;20827;-74
2023/07/24 09:37:45;;;;;;;11.23;8.60;;;19.10;1.00;;;;;;5017644;28;20831;-74
2023/07/24 09:40:13;;;;;;;12.70;10.03;;;19.10;1.00;;;;;;5033800;28;20803;-80
2023/07/24 09:42:40;;;;;;;13.40;9.43;;;19.30;1.00;;;;;;5036603;28;20417;-72
2023/07/24 09:45:08;;;;;;;14.30;9.73;;;19.40;1.00;;;;;;5035042;28;20899;-73
2023/07/24 09:47:34;;;;;;;10.60;8.67;;;19.60;1.00;;;;;;5025061;28;20473;-73
2023/07/24 09:50:02;;;;;;;10.53;8.17;;;19.80;1.00;;;;;;5034800;28;20433;-72
2023/07/24 09:52:30;;;;;;;10.60;8.50;;;19.90;1.00;;;;;;5034398;28;20406;-72
2023/07/24 09:55:17;;;;;;;11.17;8.97;;;20.10;99.90;;;;;;5036370;28;20913;-72
2023/07/24 09:57:45;;;;;;;12.10;8.00;;;20.20;99.90;;;;;;5035368;28;20814;-73
2023/07/24 10:00:12;;;;;;;13.90;9.50;;;20.20;99.90;;;;;;5017593;28;20450;-72
2023/07/24 10:02:38;;;;;;;7.57;6.87;;;20.10;99.90;;;;;;5029409;28;20447;-72
2023/07/24 10:05:05;;;;;;;14.45;7.45;;;20.10;99.90;;;;;;5017155;28;20421;-74
2023/07/24 10:07:31;;;;;;;10.75;7.60;;;20.00;99.90;;;;;;5033630;28;20449;-74
2023/07/24 10:09:58;;;;;;;9.53;8.33;;;19.90;99.90;;;;;;5035298;28;20422;-72
2023/07/24 10:12:27;;;;;;;9.20;7.67;;;20.00;99.90;;;;;;5036267;28;20399;-72
2023/07/24 10:14:55;;;;;;;14.13;9.07;;;20.30;99.90;;;;;;5035755;28;20752;-70
2023/07/24 10:17:37;;;;;;;9.07;8.13;;;20.60;99.90;;;;;;5028082;28;20478;-73
2023/07/24 10:20:08;;;;;;;9.63;7.70;;;20.80;99.90;;;;;;5034454;28;20809;-73
2023/07/24 10:22:34;;;;;;;10.43;7.67;;;20.80;99.90;;;;;;5019651;28;20987;-72
2023/07/24 10:24:59;;;;;;;9.77;7.77;;;20.80;99.90;;;;;;5032778;28;20465;-73
2023/07/24 10:27:26;;;;;;;12.20;7.80;;;20.80;99.90;;;;;;5035080;28;20514;-71
2023/07/24 10:30:06;;;;;;;15.63;11.20;;;21.00;99.90;;;;;;5035806;28;20179;-72
2023/07/24 10:32:32;;;;;;;9.80;7.40;;;21.10;99.90;;;;;;5016954;28;20426;-73
2023/07/24 10:35:06;;;;;;;7.90;7.13;;;21.20;99.90;;;;;;5015382;28;20411;-75
2023/07/24 10:37:36;;;;;;;11.27;6.97;;;21.30;99.90;;;;;;5015841;28;20219;-71
2023/07/24 10:40:04;;;;;;;7.90;7.10;;;21.10;96.10;;;;;;5032082;28;20529;-72
2023/07/24 10:42:33;;;;;;;8.07;7.20;;;21.20;96.20;;;;;;5035500;28;20493;-73
2023/07/24 10:45:17;;;;;;;7.70;6.90;;;21.50;96.30;;;;;;5032837;28;20435;-73
2023/07/24 10:47:43;;;;;;;;;;;21.80;96.40;;;;;;5015730;28;20439;-75
2023/07/24 10:50:09;;;;;;;9.85;7.05;;;21.80;81.50;;;;;;5030217;28;20244;-73
2023/07/24 10:52:34;;;;;;;6.50;6.00;;;22.10;87.30;;;;;;5033999;28;25136;-73
2023/07/24 10:55:04;;;;;;;6.75;6.15;;;22.60;72.40;;;;;;5033036;28;20187;-81
2023/07/24 10:57:30;;;;;;;13.30;6.67;;;23.00;13.20;;;;;;5035427;28;20185;-73
2023/07/24 10:59:56;;;;;;;7.70;6.03;;;23.10;1.00;;;;;;5034529;28;20814;-73
2023/07/24 11:02:22;;;;;;;7.67;5.90;;;23.10;1.00;;;;;;5015038;28;20439;-72
2023/07/24 11:04:48;;;;;;;9.13;6.30;;;23.10;1.00;;;;;;5015539;28;20156;-73
2023/07/24 11:07:15;;;;;;;9.10;5.83;;;23.10;1.00;;;;;;5014447;28;20426;-72
2023/07/24 11:09:41;;;;;;;10.83;6.00;;;22.90;1.00;;;;;;5024722;28;20441;-71
2023/07/24 11:12:15;;;;;;;8.03;7.33;;;22.70;1.00;;;;;;5034829;28;20403;-74
2023/07/24 11:14:55;;;;;;;8.37;6.83;;;22.50;1.00;;;;;;5033784;28;20441;-73
2023/07/24 11:17:21;;;;;;;7.53;6.67;;;22.20;1.00;;;;;;5028961;28;20457;-72
2023/07/24 11:19:47;;;;;;;8.20;6.60;;;21.90;1.00;;;;;;5034422;28;20964;-74
2023/07/24 11:22:14;;;;;;;7.87;6.20;;;22.10;1.00;;;;;;5034239;28;20399;-73
2023/07/24 11:24:48;;;;;;;8.03;7.27;;;22.50;1.00;;;;;;5033986;28;20958;-73
2023/07/24 11:27:15;;;;;;;10.67;6.50;;;22.60;1.00;;;;;;5034020;28;20499;-72
2023/07/24 11:29:51;;;;;;;8.10;5.93;;;23.40;1.00;;;;;;5021175;28;20431;-71
2023/07/24 11:32:20;;;;;;;9.17;5.57;;;24.20;1.00;;;;;;5014357;28;20553;-72
2023/07/24 11:34:48;;;;;;;7.87;4.80;;;24.20;1.00;;;;;;5014901;28;20407;-73
2023/07/24 11:37:15;;;;;;;6.60;6.00;;;24.40;1.00;;;;;;5013868;28;20954;-79
2023/07/24 11:39:40;;;;;;;9.13;5.43;;;24.80;1.00;;;;;;5024158;28;20547;-73
2023/07/24 11:42:06;;;;;;;5.00;4.53;;;25.00;1.00;;;;;;5032616;28;20435;-73
2023/07/24 11:44:32;;;;;;;7.13;5.53;;;24.50;1.00;;;;;;5034689;28;20166;-73
2023/07/24 11:47:02;;;;;;;5.77;5.07;;;24.00;1.00;;;;;;5033341;28;20795;-72
2023/07/24 11:49:32;;;;;;;6.67;5.40;;;23.60;1.00;;;;;;5034244;28;20230;-75
2023/07/24 11:52:05;;;;;;;6.67;4.87;;;23.20;1.00;;;;;;5034348;28;20411;-73
2023/07/24 11:54:33;;;;;;;7.30;5.83;;;23.10;1.00;;;;;;5034064;28;20514;-74
2023/07/24 11:56:59;;;;;;;6.77;5.70;;;22.90;1.00;;;;;;5032547;28;20430;-73
2023/07/24 11:59:25;;;;;;;7.90;6.43;;;22.50;1.00;;;;;;5034055;28;20956;-73
2023/07/24 12:01:51;;;;;;;16.53;6.97;;;22.30;1.00;;;;;;5034306;28;20194;-72
2023/07/24 12:04:18;;;;;;;26.73;8.70;;;22.20;1.00;;;;;;5034155;28;20386;-69
2023/07/24 12:06:44;;;;;;;16.17;9.23;;;21.90;1.00;;;;;;5032794;28;20422;-71
2023/07/24 12:09:11;;;;;;;7.60;6.90;;;21.40;1.00;;;;;;5033828;28;20429;-70
2023/07/24 12:11:46;;;;;;;13.00;7.63;;;21.00;1.00;;;;;;5033564;28;20413;-71
2023/07/24 12:14:13;;;;;;;12.93;8.03;;;20.60;1.00;;;;;;5033746;28;20456;-72
2023/07/24 12:16:39;;;;;;;10.23;7.70;;;21.00;96.10;;;;;;5032603;28;20426;-72
2023/07/24 12:19:05;;;;;;;9.37;7.40;;;21.90;99.90;;;;;;5033379;28;20449;-72
2023/07/24 12:21:31;;;;;;;10.07;7.40;;;23.10;99.90;;;;;;5033522;28;20302;-72
2023/07/24 12:23:57;;;;;;;12.67;6.93;;;24.30;84.20;;;;;;5032497;28;20417;-71
2023/07/24 12:26:25;;;;;;;7.47;6.23;;;25.40;18.50;;;;;;5031438;28;20171;-71
2023/07/24 12:28:51;;;;;;;7.07;6.47;;;26.30;1.00;;;;;;5033406;28;20253;-70
2023/07/24 12:31:16;;;;;;;8.50;6.57;;;27.20;1.00;;;;;;5032029;28;20417;-70
2023/07/24 12:33:42;;;;;;;4.90;4.50;;;27.70;1.00;;;;;;5032506;28;20386;-71
2023/07/24 12:36:08;;;;;;;5.50;5.00;;;28.00;1.00;;;;;;5014856;28;20168;-70
2023/07/24 12:38:34;;;;;;;5.70;5.10;;;27.80;1.00;;;;;;5015488;28;20282;-70
2023/07/24 12:41:01;;;;;;;5.83;5.23;;;27.10;1.00;;;;;;5032165;28;20196;-69
2023/07/24 12:43:27;;;;;;;10.73;6.97;;;26.10;1.00;;;;;;4999523;28;20613;-70